Ronja Harvester — LAWU — position and weather

sailwx.info

Track history (hours):
 
Tides and Currents Weather Stations Pressure Air Temp Water Temp Dewpoint Dewpoint Depression Visibility Wind Speed Wind Dir Waves Ship Positions

Ronja Harvester

Last reported at 2017-Dec-11 07:30 UTC. Time now 2017-Dec-11 07:36 UTC.
Position N 69°07' E 017°38'.

Length 68 m; draft 5.8 m.

Type: Cargo ship. MMSI: 258799000.

Date/timePositionNaut miles runAvg speedWind from/ knotsBaromVisibWave heightAir tempDewpointWater temp
2017-Dec-11 07:30N 69°07' E 017°38'5 9.9
2017-Dec-11 07:00N 69°06' E 017°24'5 9.4
2017-Dec-11 06:30N 69°02' E 017°17'5 9.2
2017-Dec-11 06:00N 68°59' E 017°07'5 9.8
2017-Dec-11 05:30N 68°57' E 016°54'4 9.0
2017-Dec-11 05:00N 68°56' E 016°43'0 0.3
2017-Dec-11 04:30N 68°56' E 016°42'0 0.0
2017-Dec-11 04:00N 68°56' E 016°42'0 0.0
2017-Dec-11 03:30N 68°56' E 016°42'0 0.0
2017-Dec-11 03:00N 68°56' E 016°42'0 0.0
2017-Dec-11 02:30N 68°56' E 016°42'0 0.0
2017-Dec-11 02:00N 68°56' E 016°42'0 0.0
2017-Dec-11 01:30N 68°56' E 016°42'0 0.0
2017-Dec-11 01:00N 68°56' E 016°42'0 0.0
2017-Dec-11 00:30N 68°56' E 016°42'0 0.0
2017-Dec-11 00:00N 68°56' E 016°42'3 6.3
2017-Dec-10 23:30N 68°53' E 016°46'510.2
2017-Dec-10 23:00N 68°49' E 016°37'2 3.2
2017-Dec-10 22:30N 68°48' E 016°33'0 0.0
2017-Dec-10 22:00N 68°48' E 016°33'0 0.0
2017-Dec-10 21:30N 68°48' E 016°33'0 0.0
2017-Dec-10 21:00N 68°48' E 016°33'0 0.0
2017-Dec-10 20:30N 68°48' E 016°33'0 0.0
2017-Dec-10 20:00N 68°48' E 016°33'0 0.0
2017-Dec-10 19:30N 68°48' E 016°33'0 0.0
2017-Dec-10 19:00N 68°48' E 016°33'0 0.0
2017-Dec-10 18:30N 68°48' E 016°33'0 0.0
2017-Dec-10 18:00N 68°48' E 016°33'0 0.0
2017-Dec-10 17:30N 68°48' E 016°33'0 0.0
2017-Dec-10 17:00N 68°48' E 016°33'0 0.0
2017-Dec-10 16:30N 68°48' E 016°33'0 0.0
2017-Dec-10 16:00N 68°48' E 016°33'0 0.0
2017-Dec-10 15:30N 68°48' E 016°33'0 0.0
2017-Dec-10 15:00N 68°48' E 016°33'0 0.0
2017-Dec-10 14:30N 68°48' E 016°33'1 1.0
2017-Dec-10 14:00N 68°48' E 016°34'0 0.0
2017-Dec-10 13:30N 68°48' E 016°34'0 0.0
2017-Dec-10 13:00N 68°48' E 016°34'0 0.0
2017-Dec-10 12:30N 68°48' E 016°34'1 1.1
2017-Dec-10 12:00N 68°48' E 016°33'0 0.0
2017-Dec-10 11:30N 68°48' E 016°33'0 0.0
2017-Dec-10 11:00N 68°48' E 016°33'0 0.0
2017-Dec-10 10:29N 68°48' E 016°33'0 0.0
2017-Dec-10 09:59N 68°48' E 016°33'0 0.0
2017-Dec-10 09:29N 68°48' E 016°33'0 0.0
2017-Dec-10 08:59N 68°48' E 016°33'0 0.0
2017-Dec-10 08:29N 68°48' E 016°33'0 0.0
2017-Dec-10 07:59N 68°48' E 016°33'0 0.0
2017-Dec-10 07:29N 68°48' E 016°33'0 0.0
2017-Dec-10 06:59N 68°48' E 016°33'0 0.0
2017-Dec-10 06:29N 68°48' E 016°33'0 0.0
2017-Dec-10 05:59N 68°48' E 016°33'0 0.0
2017-Dec-10 05:29N 68°48' E 016°33'0 0.0
2017-Dec-10 04:59N 68°48' E 016°33'0 0.0
2017-Dec-10 04:29N 68°48' E 016°33'0 0.0
2017-Dec-10 03:59N 68°48' E 016°33'0 0.0
2017-Dec-10 03:29N 68°48' E 016°33'0 0.0
2017-Dec-10 02:59N 68°48' E 016°33'0 0.0
2017-Dec-10 02:29N 68°48' E 016°33'0 0.0
2017-Dec-10 01:59N 68°48' E 016°33'0 0.0
2017-Dec-10 01:29N 68°48' E 016°33'0 0.0
2017-Dec-10 00:59N 68°48' E 016°33'0 0.0
2017-Dec-10 00:29N 68°48' E 016°33'0 0.0
2017-Dec-09 23:59N 68°48' E 016°33'0 0.0
2017-Dec-09 23:30N 68°48' E 016°33'2 4.8
2017-Dec-09 23:00N 68°50' E 016°39'510.2
2017-Dec-09 22:30N 68°53' E 016°50'510.4
2017-Dec-09 22:00N 68°56' E 017°01'510.4
2017-Dec-09 21:30N 68°59' E 017°12'510.1
2017-Dec-09 21:00N 69°04' E 017°20'5 9.8
2017-Dec-09 20:30N 69°06' E 017°30'510.3
2017-Dec-09 20:00N 69°08' E 017°44'510.5
2017-Dec-09 19:30N 69°10' E 017°57'4 7.2
2017-Dec-09 19:00N 69°14' E 017°57'5 9.4
2017-Dec-09 18:30N 69°19' E 017°58'5 9.0
2017-Dec-09 18:00N 69°22' E 018°05'5 9.6
2017-Dec-09 17:30N 69°27' E 018°07'5 9.1
2017-Dec-09 17:00N 69°30' E 018°16'510.3
2017-Dec-09 16:30N 69°32' E 018°30'5 9.6
2017-Dec-09 16:00N 69°33' E 018°44'5 9.3
2017-Dec-09 15:30N 69°36' E 018°53'3 6.7
2017-Dec-09 15:00N 69°39' E 018°58'2 3.0
2017-Dec-09 14:30N 69°41' E 019°01'611.2
2017-Dec-09 14:00N 69°46' E 019°06'611.7
2017-Dec-09 13:30N 69°48' E 019°22'611.7
2017-Dec-09 13:00N 69°50' E 019°38'611.5
2017-Dec-09 12:30N 69°53' E 019°52'611.5
2017-Dec-09 12:00N 69°57' E 020°05'611.4
2017-Dec-09 11:30N 69°60' E 020°19'611.8
2017-Dec-09 11:00N 70°02' E 020°36'611.7
2017-Dec-09 10:30N 70°03' E 020°52'3 6.0
2017-Dec-09 10:00N 70°02' E 021°00'0 0.5
2017-Dec-09 09:30N 70°02' E 020°59'0 0.0
2017-Dec-09 09:00N 70°02' E 020°59'0 0.0
2017-Dec-09 08:30N 70°02' E 020°59'0 0.0
2017-Dec-09 08:00N 70°02' E 020°59'3 6.4
2017-Dec-09 07:30N 70°05' E 021°04'4 8.6
2017-Dec-09 07:00N 70°09' E 021°06'4 8.3
2017-Dec-09 06:30N 70°13' E 021°09'5 9.5
2017-Dec-09 06:00N 70°16' E 021°19'5 9.4
2017-Dec-09 05:30N 70°20' E 021°29'5 9.3
2017-Dec-09 05:00N 70°23' E 021°39'5 9.3
2017-Dec-09 04:30N 70°25' E 021°51'5 9.7
2017-Dec-09 04:00N 70°26' E 022°05'5 9.7
2017-Dec-09 03:30N 70°27' E 022°20'510.2
2017-Dec-09 02:59N 70°29' E 022°35'5 9.9
2017-Dec-09 02:30N 70°30' E 022°49'5 9.0
2017-Dec-09 02:00N 70°32' E 023°00'5 9.5
2017-Dec-09 01:30N 70°36' E 023°10'5 9.6
2017-Dec-09 01:00N 70°39' E 023°20'510.0
2017-Dec-09 00:30N 70°43' E 023°30'510.4
2017-Dec-09 00:00N 70°46' E 023°42'5 9.9
2017-Dec-08 23:30N 70°50' E 023°53'510.2
2017-Dec-08 23:00N 70°53' E 024°04'510.9
2017-Dec-08 22:30N 70°57' E 024°16'510.3
2017-Dec-08 22:00N 71°00' E 024°28'510.1
2017-Dec-08 21:30N 71°01' E 024°44'611.1
2017-Dec-08 21:00N 70°59' E 025°00'510.7
2017-Dec-08 20:30N 70°59' E 025°17'511.0
2017-Dec-08 20:00N 70°56' E 025°31'510.1
2017-Dec-08 19:30N 70°56' E 025°46'510.2
2017-Dec-08 19:00N 70°57' E 026°02'510.0
2017-Dec-08 18:30N 70°57' E 026°17'5 9.6
2017-Dec-08 18:00N 70°58' E 026°31'5 9.8
2017-Dec-08 17:30N 70°58' E 026°46'510.5
2017-Dec-08 17:00N 70°55' E 026°59'510.1
2017-Dec-08 16:30N 70°52' E 027°13'510.0
2017-Dec-08 16:00N 70°50' E 027°26'3 5.3
2017-Dec-08 15:30N 70°49' E 027°33'0 0.0
2017-Dec-08 15:00N 70°49' E 027°33'0 0.0
2017-Dec-08 14:30N 70°49' E 027°33'0 0.0
2017-Dec-08 14:00N 70°49' E 027°33'0 0.2
2017-Dec-08 13:30N 70°49' E 027°34'0 0.1
2017-Dec-08 13:00N 70°49' E 027°34'0 0.0
2017-Dec-08 12:30N 70°49' E 027°34'0 0.0
2017-Dec-08 12:00N 70°49' E 027°34'0 0.0
2017-Dec-08 11:30N 70°49' E 027°34'3 5.7
2017-Dec-08 11:00N 70°50' E 027°26'510.0
2017-Dec-08 10:30N 70°52' E 027°12'510.5
2017-Dec-08 09:59N 70°55' E 026°59'5 9.9
2017-Dec-08 09:30N 70°58' E 026°46'5 9.6
2017-Dec-08 09:00N 70°58' E 026°32'611.1
2017-Dec-08 08:30N 70°57' E 026°15'510.9
2017-Dec-08 08:00N 70°57' E 025°59'5 9.5
2017-Dec-08 07:30N 70°56' E 025°44'4 8.8
2017-Dec-08 06:59N 70°56' E 025°30'5 9.6
2017-Dec-08 06:30N 70°59' E 025°19'5 9.6
2017-Dec-08 06:00N 70°59' E 025°04'5 9.8
2017-Dec-08 05:30N 71°00' E 024°49'510.7
2017-Dec-08 05:00N 71°02' E 024°34'610.8
2017-Dec-08 04:30N 70°58' E 024°21'611.5
2017-Dec-08 03:59N 70°54' E 024°08'511.0
2017-Dec-08 03:29N 70°51' E 023°55'510.7
2017-Dec-08 03:00N 70°47' E 023°43'611.7
2017-Dec-08 02:30N 70°43' E 023°31'611.8
2017-Dec-08 02:00N 70°38' E 023°19'611.5
2017-Dec-08 01:30N 70°34' E 023°06'611.4
2017-Dec-08 00:59N 70°30' E 022°54'510.9
2017-Dec-08 00:30N 70°29' E 022°39'4 8.8
2017-Dec-08 00:00N 70°28' E 022°26'510.0
2017-Dec-07 23:30N 70°27' E 022°12'5 9.8
2017-Dec-07 23:00N 70°25' E 021°58'4 8.9
2017-Dec-07 22:30N 70°24' E 021°45'5 9.6
2017-Dec-07 21:59N 70°21' E 021°34'510.3
2017-Dec-07 21:30N 70°17' E 021°23'510.5
2017-Dec-07 21:00N 70°14' E 021°11'510.7
2017-Dec-07 20:30N 70°09' E 021°07'510.6
2017-Dec-07 19:59N 70°04' E 021°03'2 4.4
2017-Dec-07 19:30N 70°02' E 020°59'0 0.0
2017-Dec-07 18:59N 70°02' E 020°59'0 0.0
2017-Dec-07 18:29N 70°02' E 020°59'0 0.0
2017-Dec-07 18:00N 70°02' E 020°59'0 0.5
2017-Dec-07 17:30N 70°02' E 021°00'5 9.2
2017-Dec-07 17:00N 70°06' E 021°04'5 9.3
2017-Dec-07 16:30N 70°11' E 021°07'5 9.0
2017-Dec-07 15:59N 70°15' E 021°14'510.1
2017-Dec-07 15:30N 70°18' E 021°25'5 9.9
2017-Dec-07 15:00N 70°22' E 021°35'5 9.4
2017-Dec-07 14:30N 70°24' E 021°47'5 9.6
2017-Dec-07 13:59N 70°26' E 022°01'5 9.7
2017-Dec-07 13:30N 70°27' E 022°14'510.3
2017-Dec-07 13:00N 70°28' E 022°29'510.2
2017-Dec-07 12:30N 70°30' E 022°44'5 9.4
2017-Dec-07 12:00N 70°31' E 022°57'5 9.9
2017-Dec-07 11:30N 70°35' E 023°07'510.0
2017-Dec-07 11:00N 70°38' E 023°18'510.2
2017-Dec-07 10:30N 70°42' E 023°28'510.2
2017-Dec-07 10:00N 70°46' E 023°39'510.2
2017-Dec-07 09:30N 70°49' E 023°50'510.4
2017-Dec-07 09:00N 70°53' E 024°02'511.0
2017-Dec-07 08:30N 70°56' E 024°15'510.5
2017-Dec-07 07:59N 70°60' E 024°27'5 9.6
2017-Dec-07 07:30N 71°01' E 024°40'510.6
2017-Dec-07 06:59N 70°60' E 024°56'510.5
2017-Dec-07 06:30N 70°59' E 025°12'510.0
2017-Dec-07 06:00N 70°58' E 025°27'5 9.1
2017-Dec-07 05:30N 70°56' E 025°39'510.5
2017-Dec-07 05:00N 70°56' E 025°55'510.2
2017-Dec-07 04:30N 70°57' E 026°11'5 9.8
2017-Dec-07 03:59N 70°58' E 026°26'5 9.7
2017-Dec-07 03:30N 70°59' E 026°41'5 9.3
2017-Dec-07 03:00N 70°56' E 026°53'510.0
2017-Dec-07 02:30N 70°54' E 027°06'510.2
2017-Dec-07 02:00N 70°51' E 027°19'510.2
2017-Dec-07 01:30N 70°49' E 027°33'0 0.3
2017-Dec-07 01:00N 70°49' E 027°34'0 0.0
2017-Dec-07 00:30N 70°49' E 027°34'0 0.0
2017-Dec-06 23:59N 70°49' E 027°34'0 0.0
2017-Dec-06 23:29N 70°49' E 027°34'0 0.0
2017-Dec-06 23:00N 70°49' E 027°34'0 0.3
2017-Dec-06 22:30N 70°49' E 027°33'4 8.8
2017-Dec-06 22:00N 70°51' E 027°21'611.6
2017-Dec-06 21:30N 70°54' E 027°06'611.6
2017-Dec-06 21:00N 70°57' E 026°51'  
2017-Dec-04 10:30N 70°53' E 024°04'510.1
2017-Dec-04 10:00N 70°56' E 024°15'510.4
2017-Dec-04 09:30N 70°60' E 024°26'5 9.0
2017-Dec-04 09:00N 71°01' E 024°40'510.5
2017-Dec-04 08:30N 70°60' E 024°55'510.3
2017-Dec-04 08:00N 70°59' E 025°11'5 9.7
2017-Dec-04 07:30N 70°58' E 025°25'611.1
2017-Dec-04 07:00N 70°56' E 025°40'510.6
2017-Dec-04 06:30N 70°57' E 025°56'510.2
2017-Dec-04 06:00N 70°57' E 026°12'510.0
2017-Dec-04 05:30N 70°58' E 026°27'5 9.3
2017-Dec-04 05:00N 70°59' E 026°41'5 9.3
2017-Dec-04 04:30N 70°56' E 026°53'5 9.3
2017-Dec-04 04:00N 70°54' E 027°05'5 9.9
2017-Dec-04 03:30N 70°51' E 027°18'5 9.7
2017-Dec-04 03:00N 70°49' E 027°30'0 0.2
2017-Dec-04 02:30N 70°49' E 027°30'0 0.0
2017-Dec-04 02:00N 70°49' E 027°30'0 0.0
2017-Dec-04 01:30N 70°49' E 027°30'0 0.0
2017-Dec-04 01:00N 70°49' E 027°30'0 0.0
2017-Dec-04 00:30N 70°49' E 027°30'0 0.0
2017-Dec-04 00:00N 70°49' E 027°30'0 0.0
2017-Dec-03 23:30N 70°49' E 027°30'1 1.5
2017-Dec-03 22:59N 70°49' E 027°29'510.9
2017-Dec-03 22:30N 70°52' E 027°15'611.8
2017-Dec-03 22:00N 70°55' E 026°59'611.3
2017-Dec-03 21:30N 70°58' E 026°45'611.3
2017-Dec-03 21:00N 70°58' E 026°27'611.8
2017-Dec-03 20:30N 70°57' E 026°09'611.8
2017-Dec-03 20:00N 70°56' E 025°52'611.4
2017-Dec-03 19:29N 70°56' E 025°34'5 9.2
2017-Dec-03 19:00N 70°59' E 025°23'611.5
2017-Dec-03 18:30N 70°59' E 025°06'511.0
2017-Dec-03 18:00N 71°00' E 024°49'510.7
2017-Dec-03 17:30N 71°02' E 024°33'510.5
2017-Dec-03 17:00N 70°58' E 024°22'510.8
2017-Dec-03 16:30N 70°55' E 024°09'611.4
2017-Dec-03 15:59N 70°51' E 023°57'611.3
2017-Dec-03 15:30N 70°47' E 023°44'612.0
2017-Dec-03 15:00N 70°42' E 023°32'612.6
2017-Dec-03 14:30N 70°38' E 023°19'612.9
2017-Dec-03 14:00N 70°33' E 023°05'612.9
2017-Dec-03 13:30N 70°30' E 022°49'612.6
2017-Dec-03 13:00N 70°28' E 022°31'612.3
2017-Dec-03 12:30N 70°26' E 022°13'611.9
2017-Dec-03 12:00N 70°25' E 021°56'611.5
2017-Dec-03 11:30N 70°23' E 021°39'611.8
2017-Dec-03 10:59N 70°19' E 021°27'612.0
2017-Dec-03 10:30N 70°15' E 021°14'510.8
2017-Dec-03 10:00N 70°10' E 021°07'611.3
2017-Dec-03 09:30N 70°04' E 021°04'3 5.7
2017-Dec-03 09:00N 70°02' E 020°59'0 0.0
2017-Dec-03 08:30N 70°02' E 020°59'0 0.0
2017-Dec-03 08:00N 70°02' E 020°59'0 0.0
2017-Dec-03 07:30N 70°02' E 020°59'0 0.0
2017-Dec-03 07:00N 70°02' E 020°59'1 2.7
2017-Dec-03 06:30N 70°03' E 021°02'510.3
2017-Dec-03 05:59N 70°08' E 021°06'510.1
2017-Dec-03 05:29N 70°13' E 021°09'510.3
2017-Dec-03 04:59N 70°17' E 021°20'510.8
2017-Dec-03 04:30N 70°20' E 021°32'510.5
2017-Dec-03 04:00N 70°24' E 021°42'510.1
2017-Dec-03 03:30N 70°25' E 021°57'5 9.9
2017-Dec-03 03:00N 70°27' E 022°11'510.2
2017-Dec-03 02:30N 70°28' E 022°26'510.0
2017-Dec-03 02:00N 70°29' E 022°40'5 9.7
2017-Dec-03 01:30N 70°31' E 022°54'4 9.0
2017-Dec-03 01:00N 70°33' E 023°04'5 9.1
2017-Dec-03 00:30N 70°37' E 023°14'4 8.8
2017-Dec-03 00:00N 70°40' E 023°23'5 8.8
2017-Dec-02 23:29N 70°43' E 023°32'4 8.9
2017-Dec-02 23:00N 70°46' E 023°42'5 9.5
2017-Dec-02 22:30N 70°50' E 023°53'5 9.8
2017-Dec-02 22:00N 70°53' E 024°03'5 9.9
2017-Dec-02 21:30N 70°56' E 024°15'510.2
2017-Dec-02 21:00N 70°60' E 024°26'4 8.9
2017-Dec-02 20:29N 71°01' E 024°39'510.4
2017-Dec-02 19:59N 70°60' E 024°55'510.5
2017-Dec-02 19:30N 70°59' E 025°10'5 9.6
2017-Dec-02 18:59N 70°58' E 025°25'510.7
2017-Dec-02 18:30N 70°56' E 025°39'510.4
2017-Dec-02 18:00N 70°57' E 025°55'510.2
2017-Dec-02 17:30N 70°57' E 026°10'510.0
2017-Dec-02 17:00N 70°58' E 026°26'5 9.5
2017-Dec-02 16:30N 70°59' E 026°40'5 9.8
2017-Dec-02 16:00N 70°56' E 026°53'510.0
2017-Dec-02 15:30N 70°54' E 027°06'510.0
2017-Dec-02 15:00N 70°51' E 027°19'4 8.8
2017-Dec-02 14:30N 70°49' E 027°30'0 0.1
2017-Dec-02 14:00N 70°49' E 027°30'0 0.0
2017-Dec-02 13:30N 70°49' E 027°30'0 0.0
2017-Dec-02 13:00N 70°49' E 027°30'0 0.0
2017-Dec-02 12:30N 70°49' E 027°30'0 0.0
2017-Dec-02 12:00N 70°49' E 027°30'0 0.0
2017-Dec-02 11:30N 70°49' E 027°30'0 0.0
2017-Dec-02 11:00N 70°49' E 027°30'0 0.0
2017-Dec-02 10:30N 70°49' E 027°30'3 6.2
2017-Dec-02 10:00N 70°51' E 027°23'510.3
2017-Dec-02 09:30N 70°53' E 027°09'510.2
2017-Dec-02 09:00N 70°56' E 026°56'510.5
2017-Dec-02 08:30N 70°58' E 026°43'610.9
2017-Dec-02 08:00N 70°58' E 026°26'611.3
2017-Dec-02 07:30N 70°58' E 026°08'4 7.2
2017-Dec-02 07:00N 70°59' E 025°58'0 0.0
2017-Dec-02 06:29N 70°59' E 025°58'0 0.0
2017-Dec-02 05:59N 70°59' E 025°58'0 0.0
2017-Dec-02 05:29N 70°59' E 025°58'0 0.0
2017-Dec-02 04:59N 70°59' E 025°58'0 0.0
2017-Dec-02 04:29N 70°59' E 025°58'0 0.0
2017-Dec-02 03:59N 70°59' E 025°58'0 0.0
2017-Dec-02 03:29N 70°59' E 025°58'0 0.0
2017-Dec-02 02:59N 70°59' E 025°58'0 0.0
2017-Dec-02 02:29N 70°59' E 025°58'0 0.0
2017-Dec-02 01:59N 70°59' E 025°58'0 0.0
2017-Dec-02 01:29N 70°59' E 025°58'0 0.0
2017-Dec-02 00:59N 70°59' E 025°58'0 0.0
2017-Dec-02 00:29N 70°59' E 025°58'0 0.0
2017-Dec-01 23:59N 70°59' E 025°58'0 0.0
2017-Dec-01 23:29N 70°59' E 025°58'0 0.0
2017-Dec-01 22:59N 70°59' E 025°58'0 0.0
2017-Dec-01 22:29N 70°59' E 025°58'0 0.0
2017-Dec-01 21:59N 70°59' E 025°58'0 0.0
2017-Dec-01 21:29N 70°59' E 025°58'0 0.0
2017-Dec-01 20:59N 70°59' E 025°58'0 0.0
2017-Dec-01 20:29N 70°59' E 025°58'0 0.0
2017-Dec-01 19:59N 70°59' E 025°58'0 0.0
2017-Dec-01 19:29N 70°59' E 025°58'0 0.0
2017-Dec-01 18:59N 70°59' E 025°58'0 0.0
2017-Dec-01 18:29N 70°59' E 025°58'0 0.0
2017-Dec-01 17:59N 70°59' E 025°58'0 0.0
2017-Dec-01 17:29N 70°59' E 025°58'0 0.0
2017-Dec-01 16:59N 70°59' E 025°58'0 0.0
2017-Dec-01 16:29N 70°59' E 025°58'0 0.0
2017-Dec-01 15:59N 70°59' E 025°58'0 0.0
2017-Dec-01 15:29N 70°59' E 025°58'0 0.0
2017-Dec-01 14:59N 70°59' E 025°58'0 0.0
2017-Dec-01 14:29N 70°59' E 025°58'0 0.0
2017-Dec-01 13:59N 70°59' E 025°58'0 0.0
2017-Dec-01 13:29N 70°59' E 025°58'0 0.0
2017-Dec-01 12:59N 70°59' E 025°58'0 0.0
2017-Dec-01 12:29N 70°59' E 025°58'0 0.0
2017-Dec-01 11:59N 70°59' E 025°58'0 0.0
2017-Dec-01 11:29N 70°59' E 025°58'0 0.0
2017-Dec-01 10:59N 70°59' E 025°58'0 0.0
2017-Dec-01 10:29N 70°59' E 025°58'0 0.0
2017-Dec-01 09:59N 70°59' E 025°58'0 0.0
2017-Dec-01 09:29N 70°59' E 025°58'0 0.0
2017-Dec-01 08:59N 70°59' E 025°58'0 0.0
2017-Dec-01 08:29N 70°59' E 025°58'0 0.0
2017-Dec-01 07:59N 70°59' E 025°58'  
Track history (hours):
 
Tides and Currents Weather Stations Pressure Air Temp Water Temp Dewpoint Dewpoint Depression Visibility Wind Speed Wind Dir Waves Ship Positions

Ronja Harvester

Last reported at 2017-Dec-11 07:30 UTC. Time now 2017-Dec-11 07:36 UTC.
Position N 69°07' E 017°38'.

Length 68 m; draft 5.8 m.

Type: Cargo ship. MMSI: 258799000.

Date/timePositionNaut miles runAvg speedWind from/ knotsBaromVisibWave heightAir tempDewpointWater temp
2017-Dec-11 07:30N 69°07' E 017°38'5 9.9
2017-Dec-11 07:00N 69°06' E 017°24'5 9.4
2017-Dec-11 06:30N 69°02' E 017°17'5 9.2
2017-Dec-11 06:00N 68°59' E 017°07'5 9.8
2017-Dec-11 05:30N 68°57' E 016°54'4 9.0
2017-Dec-11 05:00N 68°56' E 016°43'0 0.3
2017-Dec-11 04:30N 68°56' E 016°42'0 0.0
2017-Dec-11 04:00N 68°56' E 016°42'0 0.0
2017-Dec-11 03:30N 68°56' E 016°42'0 0.0
2017-Dec-11 03:00N 68°56' E 016°42'0 0.0
2017-Dec-11 02:30N 68°56' E 016°42'0 0.0
2017-Dec-11 02:00N 68°56' E 016°42'0 0.0
2017-Dec-11 01:30N 68°56' E 016°42'0 0.0
2017-Dec-11 01:00N 68°56' E 016°42'0 0.0
2017-Dec-11 00:30N 68°56' E 016°42'0 0.0
2017-Dec-11 00:00N 68°56' E 016°42'3 6.3
2017-Dec-10 23:30N 68°53' E 016°46'510.2
2017-Dec-10 23:00N 68°49' E 016°37'2 3.2
2017-Dec-10 22:30N 68°48' E 016°33'0 0.0
2017-Dec-10 22:00N 68°48' E 016°33'0 0.0
2017-Dec-10 21:30N 68°48' E 016°33'0 0.0
2017-Dec-10 21:00N 68°48' E 016°33'0 0.0
2017-Dec-10 20:30N 68°48' E 016°33'0 0.0
2017-Dec-10 20:00N 68°48' E 016°33'0 0.0
2017-Dec-10 19:30N 68°48' E 016°33'0 0.0
2017-Dec-10 19:00N 68°48' E 016°33'0 0.0
2017-Dec-10 18:30N 68°48' E 016°33'0 0.0
2017-Dec-10 18:00N 68°48' E 016°33'0 0.0
2017-Dec-10 17:30N 68°48' E 016°33'0 0.0
2017-Dec-10 17:00N 68°48' E 016°33'0 0.0
2017-Dec-10 16:30N 68°48' E 016°33'0 0.0
2017-Dec-10 16:00N 68°48' E 016°33'0 0.0
2017-Dec-10 15:30N 68°48' E 016°33'0 0.0
2017-Dec-10 15:00N 68°48' E 016°33'0 0.0
2017-Dec-10 14:30N 68°48' E 016°33'1 1.0
2017-Dec-10 14:00N 68°48' E 016°34'0 0.0
2017-Dec-10 13:30N 68°48' E 016°34'0 0.0
2017-Dec-10 13:00N 68°48' E 016°34'0 0.0
2017-Dec-10 12:30N 68°48' E 016°34'1 1.1
2017-Dec-10 12:00N 68°48' E 016°33'0 0.0
2017-Dec-10 11:30N 68°48' E 016°33'0 0.0
2017-Dec-10 11:00N 68°48' E 016°33'0 0.0
2017-Dec-10 10:29N 68°48' E 016°33'0 0.0
2017-Dec-10 09:59N 68°48' E 016°33'0 0.0
2017-Dec-10 09:29N 68°48' E 016°33'0 0.0
2017-Dec-10 08:59N 68°48' E 016°33'0 0.0
2017-Dec-10 08:29N 68°48' E 016°33'0 0.0
2017-Dec-10 07:59N 68°48' E 016°33'0 0.0
2017-Dec-10 07:29N 68°48' E 016°33'0 0.0
2017-Dec-10 06:59N 68°48' E 016°33'0 0.0
2017-Dec-10 06:29N 68°48' E 016°33'0 0.0
2017-Dec-10 05:59N 68°48' E 016°33'0 0.0
2017-Dec-10 05:29N 68°48' E 016°33'0 0.0
2017-Dec-10 04:59N 68°48' E 016°33'0 0.0
2017-Dec-10 04:29N 68°48' E 016°33'0 0.0
2017-Dec-10 03:59N 68°48' E 016°33'0 0.0
2017-Dec-10 03:29N 68°48' E 016°33'0 0.0
2017-Dec-10 02:59N 68°48' E 016°33'0 0.0
2017-Dec-10 02:29N 68°48' E 016°33'0 0.0
2017-Dec-10 01:59N 68°48' E 016°33'0 0.0
2017-Dec-10 01:29N 68°48' E 016°33'0 0.0
2017-Dec-10 00:59N 68°48' E 016°33'0 0.0
2017-Dec-10 00:29N 68°48' E 016°33'0 0.0
2017-Dec-09 23:59N 68°48' E 016°33'0 0.0
2017-Dec-09 23:30N 68°48' E 016°33'2 4.8
2017-Dec-09 23:00N 68°50' E 016°39'510.2
2017-Dec-09 22:30N 68°53' E 016°50'510.4
2017-Dec-09 22:00N 68°56' E 017°01'510.4
2017-Dec-09 21:30N 68°59' E 017°12'510.1
2017-Dec-09 21:00N 69°04' E 017°20'5 9.8
2017-Dec-09 20:30N 69°06' E 017°30'510.3
2017-Dec-09 20:00N 69°08' E 017°44'510.5
2017-Dec-09 19:30N 69°10' E 017°57'4 7.2
2017-Dec-09 19:00N 69°14' E 017°57'5 9.4
2017-Dec-09 18:30N 69°19' E 017°58'5 9.0
2017-Dec-09 18:00N 69°22' E 018°05'5 9.6
2017-Dec-09 17:30N 69°27' E 018°07'5 9.1
2017-Dec-09 17:00N 69°30' E 018°16'510.3
2017-Dec-09 16:30N 69°32' E 018°30'5 9.6
2017-Dec-09 16:00N 69°33' E 018°44'5 9.3
2017-Dec-09 15:30N 69°36' E 018°53'3 6.7
2017-Dec-09 15:00N 69°39' E 018°58'2 3.0
2017-Dec-09 14:30N 69°41' E 019°01'611.2
2017-Dec-09 14:00N 69°46' E 019°06'611.7
2017-Dec-09 13:30N 69°48' E 019°22'611.7
2017-Dec-09 13:00N 69°50' E 019°38'611.5
2017-Dec-09 12:30N 69°53' E 019°52'611.5
2017-Dec-09 12:00N 69°57' E 020°05'611.4
2017-Dec-09 11:30N 69°60' E 020°19'611.8
2017-Dec-09 11:00N 70°02' E 020°36'611.7
2017-Dec-09 10:30N 70°03' E 020°52'3 6.0
2017-Dec-09 10:00N 70°02' E 021°00'0 0.5
2017-Dec-09 09:30N 70°02' E 020°59'0 0.0
2017-Dec-09 09:00N 70°02' E 020°59'0 0.0
2017-Dec-09 08:30N 70°02' E 020°59'0 0.0
2017-Dec-09 08:00N 70°02' E 020°59'3 6.4
2017-Dec-09 07:30N 70°05' E 021°04'4 8.6
2017-Dec-09 07:00N 70°09' E 021°06'4 8.3
2017-Dec-09 06:30N 70°13' E 021°09'5 9.5
2017-Dec-09 06:00N 70°16' E 021°19'5 9.4
2017-Dec-09 05:30N 70°20' E 021°29'5 9.3
2017-Dec-09 05:00N 70°23' E 021°39'5 9.3
2017-Dec-09 04:30N 70°25' E 021°51'5 9.7
2017-Dec-09 04:00N 70°26' E 022°05'5 9.7
2017-Dec-09 03:30N 70°27' E 022°20'510.2
2017-Dec-09 02:59N 70°29' E 022°35'5 9.9
2017-Dec-09 02:30N 70°30' E 022°49'5 9.0
2017-Dec-09 02:00N 70°32' E 023°00'5 9.5
2017-Dec-09 01:30N 70°36' E 023°10'5 9.6
2017-Dec-09 01:00N 70°39' E 023°20'510.0
2017-Dec-09 00:30N 70°43' E 023°30'510.4
2017-Dec-09 00:00N 70°46' E 023°42'5 9.9
2017-Dec-08 23:30N 70°50' E 023°53'510.2
2017-Dec-08 23:00N 70°53' E 024°04'510.9
2017-Dec-08 22:30N 70°57' E 024°16'510.3
2017-Dec-08 22:00N 71°00' E 024°28'510.1
2017-Dec-08 21:30N 71°01' E 024°44'611.1
2017-Dec-08 21:00N 70°59' E 025°00'510.7
2017-Dec-08 20:30N 70°59' E 025°17'511.0
2017-Dec-08 20:00N 70°56' E 025°31'510.1
2017-Dec-08 19:30N 70°56' E 025°46'510.2
2017-Dec-08 19:00N 70°57' E 026°02'510.0
2017-Dec-08 18:30N 70°57' E 026°17'5 9.6
2017-Dec-08 18:00N 70°58' E 026°31'5 9.8
2017-Dec-08 17:30N 70°58' E 026°46'510.5
2017-Dec-08 17:00N 70°55' E 026°59'510.1
2017-Dec-08 16:30N 70°52' E 027°13'510.0
2017-Dec-08 16:00N 70°50' E 027°26'3 5.3
2017-Dec-08 15:30N 70°49' E 027°33'0 0.0
2017-Dec-08 15:00N 70°49' E 027°33'0 0.0
2017-Dec-08 14:30N 70°49' E 027°33'0 0.0
2017-Dec-08 14:00N 70°49' E 027°33'0 0.2
2017-Dec-08 13:30N 70°49' E 027°34'0 0.1
2017-Dec-08 13:00N 70°49' E 027°34'0 0.0
2017-Dec-08 12:30N 70°49' E 027°34'0 0.0
2017-Dec-08 12:00N 70°49' E 027°34'0 0.0
2017-Dec-08 11:30N 70°49' E 027°34'3 5.7
2017-Dec-08 11:00N 70°50' E 027°26'510.0
2017-Dec-08 10:30N 70°52' E 027°12'510.5
2017-Dec-08 09:59N 70°55' E 026°59'5 9.9
2017-Dec-08 09:30N 70°58' E 026°46'5 9.6
2017-Dec-08 09:00N 70°58' E 026°32'611.1
2017-Dec-08 08:30N 70°57' E 026°15'510.9
2017-Dec-08 08:00N 70°57' E 025°59'5 9.5
2017-Dec-08 07:30N 70°56' E 025°44'4 8.8
2017-Dec-08 06:59N 70°56' E 025°30'5 9.6
2017-Dec-08 06:30N 70°59' E 025°19'5 9.6
2017-Dec-08 06:00N 70°59' E 025°04'5 9.8
2017-Dec-08 05:30N 71°00' E 024°49'510.7
2017-Dec-08 05:00N 71°02' E 024°34'610.8
2017-Dec-08 04:30N 70°58' E 024°21'611.5
2017-Dec-08 03:59N 70°54' E 024°08'511.0
2017-Dec-08 03:29N 70°51' E 023°55'510.7
2017-Dec-08 03:00N 70°47' E 023°43'611.7
2017-Dec-08 02:30N 70°43' E 023°31'611.8
2017-Dec-08 02:00N 70°38' E 023°19'611.5
2017-Dec-08 01:30N 70°34' E 023°06'611.4
2017-Dec-08 00:59N 70°30' E 022°54'510.9
2017-Dec-08 00:30N 70°29' E 022°39'4 8.8
2017-Dec-08 00:00N 70°28' E 022°26'510.0
2017-Dec-07 23:30N 70°27' E 022°12'5 9.8
2017-Dec-07 23:00N 70°25' E 021°58'4 8.9
2017-Dec-07 22:30N 70°24' E 021°45'5 9.6
2017-Dec-07 21:59N 70°21' E 021°34'510.3
2017-Dec-07 21:30N 70°17' E 021°23'510.5
2017-Dec-07 21:00N 70°14' E 021°11'510.7
2017-Dec-07 20:30N 70°09' E 021°07'510.6
2017-Dec-07 19:59N 70°04' E 021°03'2 4.4
2017-Dec-07 19:30N 70°02' E 020°59'0 0.0
2017-Dec-07 18:59N 70°02' E 020°59'0 0.0
2017-Dec-07 18:29N 70°02' E 020°59'0 0.0
2017-Dec-07 18:00N 70°02' E 020°59'0 0.5
2017-Dec-07 17:30N 70°02' E 021°00'5 9.2
2017-Dec-07 17:00N 70°06' E 021°04'5 9.3
2017-Dec-07 16:30N 70°11' E 021°07'5 9.0
2017-Dec-07 15:59N 70°15' E 021°14'510.1
2017-Dec-07 15:30N 70°18' E 021°25'5 9.9
2017-Dec-07 15:00N 70°22' E 021°35'5 9.4
2017-Dec-07 14:30N 70°24' E 021°47'5 9.6
2017-Dec-07 13:59N 70°26' E 022°01'5 9.7
2017-Dec-07 13:30N 70°27' E 022°14'510.3
2017-Dec-07 13:00N 70°28' E 022°29'510.2
2017-Dec-07 12:30N 70°30' E 022°44'5 9.4
2017-Dec-07 12:00N 70°31' E 022°57'5 9.9
2017-Dec-07 11:30N 70°35' E 023°07'510.0
2017-Dec-07 11:00N 70°38' E 023°18'510.2
2017-Dec-07 10:30N 70°42' E 023°28'510.2
2017-Dec-07 10:00N 70°46' E 023°39'510.2
2017-Dec-07 09:30N 70°49' E 023°50'510.4
2017-Dec-07 09:00N 70°53' E 024°02'511.0
2017-Dec-07 08:30N 70°56' E 024°15'510.5
2017-Dec-07 07:59N 70°60' E 024°27'5 9.6
2017-Dec-07 07:30N 71°01' E 024°40'510.6
2017-Dec-07 06:59N 70°60' E 024°56'510.5
2017-Dec-07 06:30N 70°59' E 025°12'510.0
2017-Dec-07 06:00N 70°58' E 025°27'5 9.1
2017-Dec-07 05:30N 70°56' E 025°39'510.5
2017-Dec-07 05:00N 70°56' E 025°55'510.2
2017-Dec-07 04:30N 70°57' E 026°11'5 9.8
2017-Dec-07 03:59N 70°58' E 026°26'5 9.7
2017-Dec-07 03:30N 70°59' E 026°41'5 9.3
2017-Dec-07 03:00N 70°56' E 026°53'510.0
2017-Dec-07 02:30N 70°54' E 027°06'510.2
2017-Dec-07 02:00N 70°51' E 027°19'510.2
2017-Dec-07 01:30N 70°49' E 027°33'0 0.3
2017-Dec-07 01:00N 70°49' E 027°34'0 0.0
2017-Dec-07 00:30N 70°49' E 027°34'0 0.0
2017-Dec-06 23:59N 70°49' E 027°34'0 0.0
2017-Dec-06 23:29N 70°49' E 027°34'0 0.0
2017-Dec-06 23:00N 70°49' E 027°34'0 0.3
2017-Dec-06 22:30N 70°49' E 027°33'4 8.8
2017-Dec-06 22:00N 70°51' E 027°21'611.6
2017-Dec-06 21:30N 70°54' E 027°06'611.6
2017-Dec-06 21:00N 70°57' E 026°51'  
2017-Dec-04 10:30N 70°53' E 024°04'510.1
2017-Dec-04 10:00N 70°56' E 024°15'510.4
2017-Dec-04 09:30N 70°60' E 024°26'5 9.0
2017-Dec-04 09:00N 71°01' E 024°40'510.5
2017-Dec-04 08:30N 70°60' E 024°55'510.3
2017-Dec-04 08:00N 70°59' E 025°11'5 9.7
2017-Dec-04 07:30N 70°58' E 025°25'611.1
2017-Dec-04 07:00N 70°56' E 025°40'510.6
2017-Dec-04 06:30N 70°57' E 025°56'510.2
2017-Dec-04 06:00N 70°57' E 026°12'510.0
2017-Dec-04 05:30N 70°58' E 026°27'5 9.3
2017-Dec-04 05:00N 70°59' E 026°41'5 9.3
2017-Dec-04 04:30N 70°56' E 026°53'5 9.3
2017-Dec-04 04:00N 70°54' E 027°05'5 9.9
2017-Dec-04 03:30N 70°51' E 027°18'5 9.7
2017-Dec-04 03:00N 70°49' E 027°30'0 0.2
2017-Dec-04 02:30N 70°49' E 027°30'0 0.0
2017-Dec-04 02:00N 70°49' E 027°30'0 0.0
2017-Dec-04 01:30N 70°49' E 027°30'0 0.0
2017-Dec-04 01:00N 70°49' E 027°30'0 0.0
2017-Dec-04 00:30N 70°49' E 027°30'0 0.0
2017-Dec-04 00:00N 70°49' E 027°30'0 0.0
2017-Dec-03 23:30N 70°49' E 027°30'1 1.5
2017-Dec-03 22:59N 70°49' E 027°29'510.9
2017-Dec-03 22:30N 70°52' E 027°15'611.8
2017-Dec-03 22:00N 70°55' E 026°59'611.3
2017-Dec-03 21:30N 70°58' E 026°45'611.3
2017-Dec-03 21:00N 70°58' E 026°27'611.8
2017-Dec-03 20:30N 70°57' E 026°09'611.8
2017-Dec-03 20:00N 70°56' E 025°52'611.4
2017-Dec-03 19:29N 70°56' E 025°34'5 9.2
2017-Dec-03 19:00N 70°59' E 025°23'611.5
2017-Dec-03 18:30N 70°59' E 025°06'511.0
2017-Dec-03 18:00N 71°00' E 024°49'510.7
2017-Dec-03 17:30N 71°02' E 024°33'510.5
2017-Dec-03 17:00N 70°58' E 024°22'510.8
2017-Dec-03 16:30N 70°55' E 024°09'611.4
2017-Dec-03 15:59N 70°51' E 023°57'611.3
2017-Dec-03 15:30N 70°47' E 023°44'612.0
2017-Dec-03 15:00N 70°42' E 023°32'612.6
2017-Dec-03 14:30N 70°38' E 023°19'612.9
2017-Dec-03 14:00N 70°33' E 023°05'612.9
2017-Dec-03 13:30N 70°30' E 022°49'612.6
2017-Dec-03 13:00N 70°28' E 022°31'612.3
2017-Dec-03 12:30N 70°26' E 022°13'611.9
2017-Dec-03 12:00N 70°25' E 021°56'611.5
2017-Dec-03 11:30N 70°23' E 021°39'611.8
2017-Dec-03 10:59N 70°19' E 021°27'612.0
2017-Dec-03 10:30N 70°15' E 021°14'510.8
2017-Dec-03 10:00N 70°10' E 021°07'611.3
2017-Dec-03 09:30N 70°04' E 021°04'3 5.7
2017-Dec-03 09:00N 70°02' E 020°59'0 0.0
2017-Dec-03 08:30N 70°02' E 020°59'0 0.0
2017-Dec-03 08:00N 70°02' E 020°59'0 0.0
2017-Dec-03 07:30N 70°02' E 020°59'0 0.0
2017-Dec-03 07:00N 70°02' E 020°59'1 2.7
2017-Dec-03 06:30N 70°03' E 021°02'510.3
2017-Dec-03 05:59N 70°08' E 021°06'510.1
2017-Dec-03 05:29N 70°13' E 021°09'510.3
2017-Dec-03 04:59N 70°17' E 021°20'510.8
2017-Dec-03 04:30N 70°20' E 021°32'510.5
2017-Dec-03 04:00N 70°24' E 021°42'510.1
2017-Dec-03 03:30N 70°25' E 021°57'5 9.9
2017-Dec-03 03:00N 70°27' E 022°11'510.2
2017-Dec-03 02:30N 70°28' E 022°26'510.0
2017-Dec-03 02:00N 70°29' E 022°40'5 9.7
2017-Dec-03 01:30N 70°31' E 022°54'4 9.0
2017-Dec-03 01:00N 70°33' E 023°04'5 9.1
2017-Dec-03 00:30N 70°37' E 023°14'4 8.8
2017-Dec-03 00:00N 70°40' E 023°23'5 8.8
2017-Dec-02 23:29N 70°43' E 023°32'4 8.9
2017-Dec-02 23:00N 70°46' E 023°42'5 9.5
2017-Dec-02 22:30N 70°50' E 023°53'5 9.8
2017-Dec-02 22:00N 70°53' E 024°03'5 9.9
2017-Dec-02 21:30N 70°56' E 024°15'510.2
2017-Dec-02 21:00N 70°60' E 024°26'4 8.9
2017-Dec-02 20:29N 71°01' E 024°39'510.4
2017-Dec-02 19:59N 70°60' E 024°55'510.5
2017-Dec-02 19:30N 70°59' E 025°10'5 9.6
2017-Dec-02 18:59N 70°58' E 025°25'510.7
2017-Dec-02 18:30N 70°56' E 025°39'510.4
2017-Dec-02 18:00N 70°57' E 025°55'510.2
2017-Dec-02 17:30N 70°57' E 026°10'510.0
2017-Dec-02 17:00N 70°58' E 026°26'5 9.5
2017-Dec-02 16:30N 70°59' E 026°40'5 9.8
2017-Dec-02 16:00N 70°56' E 026°53'510.0
2017-Dec-02 15:30N 70°54' E 027°06'510.0
2017-Dec-02 15:00N 70°51' E 027°19'4 8.8
2017-Dec-02 14:30N 70°49' E 027°30'0 0.1
2017-Dec-02 14:00N 70°49' E 027°30'0 0.0
2017-Dec-02 13:30N 70°49' E 027°30'0 0.0
2017-Dec-02 13:00N 70°49' E 027°30'0 0.0
2017-Dec-02 12:30N 70°49' E 027°30'0 0.0
2017-Dec-02 12:00N 70°49' E 027°30'0 0.0
2017-Dec-02 11:30N 70°49' E 027°30'0 0.0
2017-Dec-02 11:00N 70°49' E 027°30'0 0.0
2017-Dec-02 10:30N 70°49' E 027°30'3 6.2
2017-Dec-02 10:00N 70°51' E 027°23'510.3
2017-Dec-02 09:30N 70°53' E 027°09'510.2
2017-Dec-02 09:00N 70°56' E 026°56'510.5
2017-Dec-02 08:30N 70°58' E 026°43'610.9
2017-Dec-02 08:00N 70°58' E 026°26'611.3
2017-Dec-02 07:30N 70°58' E 026°08'4 7.2
2017-Dec-02 07:00N 70°59' E 025°58'0 0.0
2017-Dec-02 06:29N 70°59' E 025°58'0 0.0
2017-Dec-02 05:59N 70°59' E 025°58'0 0.0
2017-Dec-02 05:29N 70°59' E 025°58'0 0.0
2017-Dec-02 04:59N 70°59' E 025°58'0 0.0
2017-Dec-02 04:29N 70°59' E 025°58'0 0.0
2017-Dec-02 03:59N 70°59' E 025°58'0 0.0
2017-Dec-02 03:29N 70°59' E 025°58'0 0.0
2017-Dec-02 02:59N 70°59' E 025°58'0 0.0
2017-Dec-02 02:29N 70°59' E 025°58'0 0.0
2017-Dec-02 01:59N 70°59' E 025°58'0 0.0
2017-Dec-02 01:29N 70°59' E 025°58'0 0.0
2017-Dec-02 00:59N 70°59' E 025°58'0 0.0
2017-Dec-02 00:29N 70°59' E 025°58'0 0.0
2017-Dec-01 23:59N 70°59' E 025°58'0 0.0
2017-Dec-01 23:29N 70°59' E 025°58'0 0.0
2017-Dec-01 22:59N 70°59' E 025°58'0 0.0
2017-Dec-01 22:29N 70°59' E 025°58'0 0.0
2017-Dec-01 21:59N 70°59' E 025°58'0 0.0
2017-Dec-01 21:29N 70°59' E 025°58'0 0.0
2017-Dec-01 20:59N 70°59' E 025°58'0 0.0
2017-Dec-01 20:29N 70°59' E 025°58'0 0.0
2017-Dec-01 19:59N 70°59' E 025°58'0 0.0
2017-Dec-01 19:29N 70°59' E 025°58'0 0.0
2017-Dec-01 18:59N 70°59' E 025°58'0 0.0
2017-Dec-01 18:29N 70°59' E 025°58'0 0.0
2017-Dec-01 17:59N 70°59' E 025°58'0 0.0
2017-Dec-01 17:29N 70°59' E 025°58'0 0.0
2017-Dec-01 16:59N 70°59' E 025°58'0 0.0
2017-Dec-01 16:29N 70°59' E 025°58'0 0.0
2017-Dec-01 15:59N 70°59' E 025°58'0 0.0
2017-Dec-01 15:29N 70°59' E 025°58'0 0.0
2017-Dec-01 14:59N 70°59' E 025°58'0 0.0
2017-Dec-01 14:29N 70°59' E 025°58'0 0.0
2017-Dec-01 13:59N 70°59' E 025°58'0 0.0
2017-Dec-01 13:29N 70°59' E 025°58'0 0.0
2017-Dec-01 12:59N 70°59' E 025°58'0 0.0
2017-Dec-01 12:29N 70°59' E 025°58'0 0.0
2017-Dec-01 11:59N 70°59' E 025°58'0 0.0
2017-Dec-01 11:29N 70°59' E 025°58'0 0.0
2017-Dec-01 10:59N 70°59' E 025°58'0 0.0
2017-Dec-01 10:29N 70°59' E 025°58'0 0.0
2017-Dec-01 09:59N 70°59' E 025°58'0 0.0
2017-Dec-01 09:29N 70°59' E 025°58'0 0.0
2017-Dec-01 08:59N 70°59' E 025°58'0 0.0
2017-Dec-01 08:29N 70°59' E 025°58'0 0.0
2017-Dec-01 07:59N 70°59' E 025°58'  

Dump ship's entire track history